Time;durP1;ratioP1;P1;durP2;ratioP2;P2;SDS_P1;SDS_P2;PMS_P1;PMS_P2;Temp;Humidity;BMP_temperature;BMP_pressure;BME280_temperature;BME280_humidity;BME280_pressure;Samples;Min_cycle;Max_cycle;Signal;HPM_P1;HPM_P2
2021/08/07 00:01:14;;;;;;;11.10;7.33;;;;;;;24.78;47.99;99250.09;1727252;80;21503;-65
2021/08/07 00:03:40;;;;;;;12.37;6.53;;;;;;;24.77;47.67;99240.50;1726695;80;21042;-65
2021/08/07 00:06:06;;;;;;;13.67;7.70;;;;;;;24.79;47.58;99242.88;1761451;79;20943;-66
2021/08/07 00:08:33;;;;;;;8.80;7.40;;;;;;;24.79;47.03;99247.66;1726266;82;21146;-61
2021/08/07 00:11:00;;;;;;;13.13;7.40;;;;;;;24.82;46.88;99242.28;1728004;80;21058;-65
2021/08/07 00:13:26;;;;;;;11.13;7.40;;;;;;;24.83;46.61;99246.52;1760905;80;21543;-61
2021/08/07 00:15:55;;;;;;;9.20;7.27;;;;;;;24.85;46.34;99249.66;1728007;80;20998;-63
2021/08/07 00:18:21;;;;;;;11.17;8.00;;;;;;;24.84;46.55;99238.76;1760445;79;20999;-64
2021/08/07 00:20:48;;;;;;;8.27;7.03;;;;;;;24.81;46.01;99244.14;1728096;80;21145;-64
2021/08/07 00:23:14;;;;;;;11.90;7.10;;;;;;;24.80;46.19;99243.91;1726551;82;22519;-65
2021/08/07 00:25:41;;;;;;;10.27;7.20;;;;;;;24.79;45.83;99242.34;1760918;80;21536;-65
2021/08/07 00:28:08;;;;;;;8.90;6.53;;;;;;;24.81;45.61;99242.02;1726656;82;21016;-66
2021/08/07 00:30:35;;;;;;;9.10;6.47;;;;;;;24.79;45.51;99240.22;1727472;80;21075;-62
2021/08/07 00:33:01;;;;;;;10.43;7.20;;;;;;;24.79;44.85;99242.88;1727448;80;21520;-64
2021/08/07 00:35:29;;;;;;;13.83;7.33;;;;;;;24.80;44.78;99243.91;1693667;82;21639;-64
2021/08/07 00:37:57;;;;;;;9.77;7.67;;;;;;;24.83;44.32;99233.19;1761972;79;20978;-64
2021/08/07 00:40:24;;;;;;;9.33;6.73;;;;;;;24.87;44.46;99243.49;1727312;80;20987;-65
2021/08/07 00:42:52;;;;;;;10.57;7.13;;;;;;;24.85;44.16;99242.99;1724327;80;20939;-65
2021/08/07 00:45:30;;;;;;;10.27;7.73;;;;;;;24.86;43.85;99241.38;1726768;80;21541;-65
2021/08/07 00:47:58;;;;;;;10.23;6.97;;;;;;;24.85;43.75;99243.80;1727335;80;21477;-65
2021/08/07 00:50:26;;;;;;;9.53;6.53;;;;;;;24.85;43.90;99239.81;1761414;79;21090;-61
2021/08/07 00:52:52;;;;;;;9.03;7.07;;;;;;;24.83;43.60;99229.19;1761227;80;20899;-65
2021/08/07 00:55:21;;;;;;;9.43;6.93;;;;;;;24.84;43.19;99236.88;1760347;80;21129;-66
2021/08/07 00:57:47;;;;;;;10.53;6.57;;;;;;;24.83;43.25;99239.31;1761733;80;21146;-65
2021/08/07 01:00:16;;;;;;;9.50;6.60;;;;;;;24.84;43.06;99241.42;1761099;80;20964;-65
2021/08/07 01:02:45;;;;;;;10.23;6.80;;;;;;;24.84;42.73;99240.88;1761241;80;20986;-61
2021/08/07 01:05:26;;;;;;;9.00;6.97;;;;;;;24.85;42.58;99245.14;1723174;82;21071;-64
2021/08/07 01:08:09;;;;;;;12.03;6.42;;;;;;;24.84;42.74;99244.88;1723297;83;21126;-64
2021/08/07 01:10:47;;;;;;;11.63;6.90;;;;;;;24.80;42.38;99239.91;1695313;83;21439;-61
2021/08/07 01:13:21;;;;;;;10.27;6.37;;;;;;;24.82;42.42;99243.07;1723486;83;20900;-65
2021/08/07 01:15:53;;;;;;;11.77;6.97;;;;;;;24.83;42.23;99244.64;1723027;83;20947;-61
2021/08/07 01:18:22;;;;;;;10.63;6.67;;;;;;;24.79;42.36;99240.22;1722957;83;21026;-64
2021/08/07 01:20:52;;;;;;;8.33;6.83;;;;;;;24.75;42.59;99244.03;1695856;83;21515;-64
2021/08/07 01:23:34;;;;;;;8.07;6.37;;;;;;;24.70;42.62;99253.45;1723654;81;21148;-65
2021/08/07 01:26:13;;;;;;;9.23;6.33;;;;;;;24.67;42.49;99256.20;1722044;83;21002;-64
2021/08/07 01:28:42;;;;;;;8.03;6.67;;;;;;;24.66;42.63;99261.81;1723416;83;21461;-64
2021/08/07 01:31:11;;;;;;;9.60;5.97;;;;;;;24.63;42.64;99255.77;1723669;81;21458;-64
2021/08/07 01:33:38;;;;;;;9.00;6.60;;;;;;;24.59;42.40;99259.58;1722797;81;20947;-61
2021/08/07 01:36:06;;;;;;;11.07;6.30;;;;;;;24.61;42.32;99252.60;1722962;83;21163;-64
2021/08/07 01:38:33;;;;;;;8.30;6.97;;;;;;;24.61;42.65;99253.94;1723941;83;21396;-65
2021/08/07 01:41:01;;;;;;;12.53;7.17;;;;;;;24.58;42.59;99263.31;1723621;83;21000;-64
2021/08/07 01:43:31;;;;;;;10.73;6.27;;;;;;;24.56;42.69;99249.52;1716892;83;21007;-60
2021/08/07 01:45:59;;;;;;;9.50;6.10;;;;;;;24.54;42.91;99256.22;1716312;83;21114;-64
2021/08/07 01:48:56;;;;;;;9.57;5.97;;;;;;;24.51;42.67;99258.41;1696233;83;22238;-64
2021/08/07 01:51:40;;;;;;;10.60;6.27;;;;;;;24.51;42.70;99258.95;1698365;83;21092;-64
2021/08/07 01:54:08;;;;;;;8.93;6.57;;;;;;;24.51;42.80;99262.41;1670997;84;21073;-63
2021/08/07 01:56:44;;;;;;;10.10;6.35;;;;;;;24.50;42.82;99256.81;1723778;83;21055;-63
2021/08/07 01:59:18;;;;;;;10.30;6.07;;;;;;;24.53;42.75;99263.98;1687994;83;21173;-64
2021/08/07 02:01:47;;;;;;;10.47;6.63;;;;;;;24.51;42.84;99256.30;1698752;83;21137;-64
2021/08/07 02:04:16;;;;;;;12.82;6.70;;;;;;;24.46;43.02;99258.50;1713829;81;21054;-65
2021/08/07 02:06:44;;;;;;;10.67;6.73;;;;;;;24.46;43.09;99256.39;1754772;80;21007;-64
2021/08/07 02:09:12;;;;;;;10.27;6.60;;;;;;;24.45;43.22;99252.94;1755700;80;21152;-65
2021/08/07 02:11:40;;;;;;;11.10;7.10;;;;;;;24.43;43.47;99271.08;1754448;80;21059;-64
2021/08/07 02:14:08;;;;;;;10.87;6.33;;;;;;;24.42;43.36;99261.52;1755873;80;21281;-64
2021/08/07 02:16:38;;;;;;;10.07;6.87;;;;;;;24.41;43.35;99261.83;1731651;82;20959;-61
2021/08/07 02:19:06;;;;;;;13.70;6.43;;;;;;;24.44;43.48;99266.02;1720210;82;21121;-64
2021/08/07 02:21:34;;;;;;;9.47;6.13;;;;;;;24.45;43.52;99266.80;1755596;81;22413;-64
2021/08/07 02:24:01;;;;;;;10.83;6.40;;;;;;;24.46;43.44;99268.38;1702479;82;21536;-64
2021/08/07 02:26:28;;;;;;;10.57;6.97;;;;;;;24.51;43.30;99265.62;1732081;81;21136;-65
2021/08/07 02:28:59;;;;;;;8.98;5.92;;;;;;;24.54;43.45;99269.54;1754614;81;20971;-62
2021/08/07 02:31:27;;;;;;;12.23;7.17;;;;;;;24.54;43.79;99271.66;1755779;80;21014;-64
2021/08/07 02:33:55;;;;;;;10.77;6.70;;;;;;;24.50;43.75;99274.12;1755865;80;21105;-65
2021/08/07 02:36:21;;;;;;;7.83;6.47;;;;;;;24.51;44.03;99272.28;1755621;80;20927;-64
2021/08/07 02:38:49;;;;;;;9.50;5.77;;;;;;;24.54;44.18;99272.20;1754624;80;21468;-64
2021/08/07 02:41:16;;;;;;;11.47;6.93;;;;;;;24.53;44.53;99283.95;1755328;80;21131;-64
2021/08/07 02:43:45;;;;;;;9.60;6.80;;;;;;;24.54;44.60;99278.31;1755845;80;21339;-64
2021/08/07 02:46:12;;;;;;;11.33;7.57;;;;;;;24.55;44.76;99282.58;1755755;80;21012;-65
2021/08/07 02:48:39;;;;;;;8.63;6.87;;;;;;;24.57;44.91;99286.27;1736066;81;21465;-61
2021/08/07 02:51:06;;;;;;;9.20;7.13;;;;;;;24.60;45.25;99293.67;1702506;82;21217;-65
2021/08/07 02:53:35;;;;;;;8.40;6.43;;;;;;;24.60;45.66;99290.45;1749368;80;21544;-65
2021/08/07 02:56:03;;;;;;;11.60;6.47;;;;;;;24.65;45.49;99298.33;1704553;81;21011;-64
2021/08/07 02:58:29;;;;;;;8.90;6.07;;;;;;;24.68;45.72;99296.95;1731870;80;21488;-61
2021/08/07 03:00:57;;;;;;;8.40;6.17;;;;;;;24.72;45.80;99301.92;1679232;83;21091;-61
2021/08/07 03:03:25;;;;;;;9.47;5.60;;;;;;;24.75;46.09;99297.33;1681316;85;22195;-65
2021/08/07 03:05:52;;;;;;;10.27;6.47;;;;;;;24.78;46.50;99306.06;1680312;85;21801;-63
2021/08/07 03:08:19;;;;;;;12.93;6.20;;;;;;;24.81;46.36;99300.66;1681385;85;21022;-65
2021/08/07 03:10:47;;;;;;;9.80;5.90;;;;;;;24.85;46.77;99306.97;1679996;84;20954;-64
2021/08/07 03:13:16;;;;;;;11.90;6.50;;;;;;;24.88;46.79;99307.70;1680139;85;21806;-61
2021/08/07 03:15:43;;;;;;;11.60;6.67;;;;;;;24.89;46.66;99302.09;1680701;85;21065;-64
2021/08/07 03:18:10;;;;;;;11.33;6.43;;;;;;;24.93;46.79;99304.94;1669734;85;20982;-63
2021/08/07 03:20:39;;;;;;;7.63;5.80;;;;;;;24.97;46.60;99305.91;1680736;85;21054;-62
2021/08/07 03:23:08;;;;;;;9.80;6.27;;;;;;;24.96;46.99;99304.31;1675340;83;21388;-65
2021/08/07 03:25:36;;;;;;;8.60;5.90;;;;;;;24.94;47.22;99305.17;1681034;85;20855;-64
2021/08/07 03:28:05;;;;;;;10.50;5.70;;;;;;;24.90;47.41;99299.66;1666186;85;21143;-65
2021/08/07 03:30:33;;;;;;;9.13;6.47;;;;;;;24.85;48.00;99307.78;1653448;85;20986;-64
2021/08/07 03:33:00;;;;;;;12.50;5.93;;;;;;;24.80;48.50;99306.54;1681222;83;21572;-64
2021/08/07 03:35:27;;;;;;;9.40;5.93;;;;;;;24.76;49.33;99302.34;1669646;85;21603;-64
2021/08/07 03:37:53;;;;;;;11.30;5.83;;;;;;;24.72;50.14;99300.59;1681434;84;21121;-63
2021/08/07 03:40:20;;;;;;;9.87;6.00;;;;;;;24.70;51.45;99301.42;1681359;85;21122;-62
2021/08/07 03:42:47;;;;;;;12.70;6.10;;;;;;;24.68;51.74;99304.95;1680423;85;20963;-62
2021/08/07 03:45:15;;;;;;;11.13;7.07;;;;;;;24.70;52.06;99300.09;1680344;85;21085;-64
2021/08/07 03:47:46;;;;;;;10.40;6.50;;;;;;;24.75;52.39;99294.67;1680760;85;20987;-61
2021/08/07 03:50:13;;;;;;;12.40;7.67;;;;;;;24.85;52.65;99293.12;1672061;85;21117;-63
2021/08/07 03:52:41;;;;;;;15.60;8.53;;;;;;;24.93;52.29;99294.28;1680642;85;21134;-64
2021/08/07 03:55:09;;;;;;;12.10;8.07;;;;;;;24.98;52.72;99289.60;1681174;85;20947;-64
2021/08/07 03:57:49;;;;;;;15.67;8.03;;;;;;;25.08;54.06;99290.45;1651699;85;21018;-62
2021/08/07 04:00:18;;;;;;;16.90;8.40;;;;;;;25.14;54.26;99288.73;1680566;85;21089;-64
2021/08/07 04:02:47;;;;;;;12.18;7.65;;;;;;;25.32;55.19;99286.97;1654016;84;21025;-65
2021/08/07 04:05:14;;;;;;;13.87;7.80;;;;;;;25.71;53.80;99282.78;1684734;83;22096;-64
2021/08/07 04:07:41;;;;;;;12.30;7.67;;;;;;;26.22;51.29;99276.10;1684071;84;21067;-63
2021/08/07 04:10:10;;;;;;;11.37;7.20;;;;;;;26.57;48.89;99272.96;1683863;83;21015;-61
2021/08/07 04:12:37;;;;;;;13.17;6.93;;;;;;;26.68;47.88;99277.45;1684098;83;20972;-63
2021/08/07 04:15:06;;;;;;;10.77;7.17;;;;;;;26.63;48.22;99278.92;1677824;83;20904;-64
2021/08/07 04:17:36;;;;;;;12.23;6.63;;;;;;;26.53;49.07;99272.56;1682730;84;22246;-63
2021/08/07 04:20:07;;;;;;;10.33;6.57;;;;;;;26.44;49.75;99266.64;1684311;83;21022;-64
2021/08/07 04:22:33;;;;;;;7.97;6.00;;;;;;;26.37;50.68;99257.52;1683695;83;21006;-63
2021/08/07 04:25:00;;;;;;;13.10;6.87;;;;;;;26.29;51.89;99255.59;1683713;84;21729;-64
2021/08/07 04:27:28;;;;;;;13.57;6.43;;;;;;;26.24;53.61;99256.53;1684318;83;21022;-63
2021/08/07 04:29:55;;;;;;;9.30;5.83;;;;;;;26.35;55.01;99255.13;1652798;84;22106;-63
2021/08/07 04:32:23;;;;;;;11.60;5.80;;;;;;;26.60;54.13;99260.87;1684028;83;21065;-63
2021/08/07 04:34:51;;;;;;;9.17;5.73;;;;;;;26.98;52.99;99263.69;1683377;83;21052;-65
2021/08/07 04:37:18;;;;;;;10.53;6.00;;;;;;;27.74;50.90;99272.47;1684725;83;20963;-63
2021/08/07 04:39:45;;;;;;;9.13;6.00;;;;;;;28.73;46.94;99276.09;1684850;83;20939;-64
2021/08/07 04:42:11;;;;;;;10.65;5.75;;;;;;;29.83;42.86;99270.29;1684098;83;22757;-64
2021/08/07 04:44:38;;;;;;;9.95;5.30;;;;;;;30.81;39.63;99254.61;1681708;83;22451;-64
2021/08/07 04:47:05;;;;;;;9.18;5.90;;;;;;;31.20;37.36;99252.95;1668239;84;20998;-64
2021/08/07 04:49:33;;;;;;;11.08;5.80;;;;;;;31.12;37.57;99241.78;1675732;83;20975;-64
2021/08/07 04:52:00;;;;;;;11.88;6.42;;;;;;;30.99;37.20;99242.42;1682388;84;21110;-65
2021/08/07 04:54:28;;;;;;;8.18;6.10;;;;;;;30.82;37.16;99242.72;1677114;83;21235;-66
2021/08/07 04:56:57;;;;;;;11.45;6.05;;;;;;;30.46;37.39;99241.13;1682243;84;20896;-67
2021/08/07 04:59:24;;;;;;;13.22;5.70;;;;;;;30.49;38.04;99239.65;1675709;83;21071;-65
2021/08/07 05:01:51;;;;;;;9.30;5.53;;;;;;;30.84;37.32;99253.91;1678934;83;21928;-64
2021/08/07 05:04:19;;;;;;;17.73;6.05;;;;;;;31.00;37.20;99254.75;1676050;84;21596;-67
2021/08/07 05:06:46;;;;;;;11.97;5.97;;;;;;;30.95;36.54;99254.97;1676345;84;21851;-67
2021/08/07 05:09:14;;;;;;;11.78;6.53;;;;;;;30.80;37.08;99263.78;1676817;84;20999;-66
2021/08/07 05:11:43;;;;;;;9.90;5.65;;;;;;;30.74;38.00;99254.63;1676388;84;21011;-66
2021/08/07 05:14:09;;;;;;;11.35;5.83;;;;;;;30.71;38.33;99257.96;1675012;84;21020;-65
2021/08/07 05:16:36;;;;;;;8.90;5.45;;;;;;;30.72;38.72;99252.02;1676642;84;21651;-63
2021/08/07 05:19:02;;;;;;;10.10;5.72;;;;;;;31.09;38.69;99256.70;1676228;84;21280;-66
2021/08/07 05:21:31;;;;;;;10.93;6.25;;;;;;;31.88;37.30;99269.50;1676496;84;21585;-65
2021/08/07 05:23:58;;;;;;;11.97;6.22;;;;;;;32.62;36.07;99264.21;1676585;84;20994;-62
2021/08/07 05:26:25;;;;;;;11.08;6.58;;;;;;;33.24;34.67;99278.52;1675910;84;21498;-66
2021/08/07 05:28:51;;;;;;;8.48;5.10;;;;;;;33.57;33.39;99273.91;1676611;84;21171;-66
2021/08/07 05:31:19;;;;;;;8.45;5.78;;;;;;;33.79;33.46;99279.09;1675576;84;21456;-66
2021/08/07 05:33:45;;;;;;;10.98;5.58;;;;;;;33.97;32.31;99297.50;1672118;84;21012;-65
2021/08/07 05:36:14;;;;;;;8.65;5.15;;;;;;;33.99;31.61;99304.72;1677346;84;21059;-62
2021/08/07 05:38:41;;;;;;;12.55;5.85;;;;;;;34.02;31.53;99312.08;1677969;84;21316;-64
2021/08/07 05:41:08;;;;;;;10.43;4.60;;;;;;;34.13;30.75;99321.13;1676980;84;21500;-65
2021/08/07 05:43:36;;;;;;;11.00;5.60;;;;;;;33.89;30.98;99325.77;1677505;84;21373;-65
2021/08/07 05:46:02;;;;;;;11.95;4.47;;;;;;;33.48;31.37;99326.62;1670975;84;20932;-62
2021/08/07 05:48:32;;;;;;;11.50;4.65;;;;;;;33.18;32.11;99322.58;1678298;84;21034;-61
2021/08/07 05:51:00;;;;;;;9.58;5.03;;;;;;;32.92;32.11;99310.27;1675341;85;21110;-63
2021/08/07 05:53:27;;;;;;;10.63;5.67;;;;;;;32.66;32.26;99300.14;1676297;84;21039;-65
2021/08/07 05:55:54;;;;;;;11.73;5.10;;;;;;;32.57;33.45;99299.55;1677610;84;21057;-64
2021/08/07 05:58:22;;;;;;;12.05;5.70;;;;;;;32.76;33.60;99306.87;1671308;84;20991;-61
2021/08/07 06:00:48;;;;;;;11.80;5.42;;;;;;;32.78;32.94;99312.14;1674821;84;21178;-64
2021/08/07 06:03:15;;;;;;;10.20;5.05;;;;;;;32.67;33.04;99315.97;1706121;81;21079;-65
2021/08/07 06:05:43;;;;;;;12.45;5.25;;;;;;;32.66;33.07;99309.02;1711110;82;20970;-63
2021/08/07 06:08:12;;;;;;;9.90;5.15;;;;;;;32.76;32.52;99314.40;1707204;82;20967;-61
2021/08/07 06:10:39;;;;;;;7.03;4.67;;;;;;;32.75;33.02;99321.52;1707365;82;21460;-64
2021/08/07 06:13:07;;;;;;;8.70;4.83;;;;;;;32.76;33.31;99313.63;1711430;82;21413;-64
2021/08/07 06:15:33;;;;;;;10.23;5.25;;;;;;;32.82;33.15;99318.97;1710335;82;21079;-63
2021/08/07 06:18:00;;;;;;;11.45;5.03;;;;;;;32.74;32.47;99322.66;1706768;81;21557;-64
2021/08/07 06:20:28;;;;;;;9.93;5.72;;;;;;;32.57;32.79;99309.77;1715445;82;21806;-60
2021/08/07 06:22:55;;;;;;;11.95;5.97;;;;;;;32.32;33.29;99315.18;1714366;81;21120;-63
2021/08/07 06:25:22;;;;;;;8.60;4.83;;;;;;;32.09;33.87;99311.00;1709271;82;21020;-64
2021/08/07 06:27:54;;;;;;;9.90;5.95;;;;;;;31.88;33.43;99309.92;1711605;82;21015;-62
2021/08/07 06:30:22;;;;;;;12.37;5.20;;;;;;;31.58;33.58;99315.70;1710433;82;21105;-61
2021/08/07 06:32:50;;;;;;;9.60;5.00;;;;;;;31.30;34.17;99312.27;1710188;82;21371;-63
2021/08/07 06:35:18;;;;;;;11.63;5.10;;;;;;;31.12;34.41;99312.55;1710852;82;21616;-63
2021/08/07 06:37:45;;;;;;;10.80;4.55;;;;;;;31.03;35.57;99313.28;1709453;82;21462;-63
2021/08/07 06:40:13;;;;;;;12.58;5.30;;;;;;;31.04;35.92;99313.49;1711940;82;21572;-62
2021/08/07 06:42:39;;;;;;;11.80;5.37;;;;;;;31.06;35.80;99305.06;1714642;81;21042;-62
2021/08/07 06:45:09;;;;;;;10.80;4.70;;;;;;;31.05;35.67;99297.55;1692581;82;21151;-63
2021/08/07 06:47:36;;;;;;;13.32;5.10;;;;;;;31.01;35.81;99292.64;1711294;82;20889;-62
2021/08/07 06:50:05;;;;;;;10.60;5.00;;;;;;;31.06;35.87;99282.96;1713671;82;21024;-62
2021/08/07 06:52:33;;;;;;;8.20;4.47;;;;;;;31.06;35.87;99282.96;1714012;82;20952;-61
2021/08/07 06:55:02;;;;;;;9.28;5.58;;;;;;;31.18;36.04;99272.72;1710483;82;20975;-63
2021/08/07 06:57:28;;;;;;;12.25;5.10;;;;;;;31.32;35.47;99272.32;1712560;82;21087;-62
2021/08/07 06:59:56;;;;;;;8.53;5.25;;;;;;;31.58;35.82;99264.52;1713377;82;20940;-64
2021/08/07 07:02:24;;;;;;;9.88;4.83;;;;;;;31.95;35.02;99267.75;1699561;82;21062;-63
2021/08/07 07:04:51;;;;;;;7.80;4.72;;;;;;;32.32;34.45;99266.64;1677885;84;21012;-61
2021/08/07 07:07:19;;;;;;;7.50;4.28;;;;;;;32.75;33.34;99261.56;1677861;84;21074;-62
2021/08/07 07:09:45;;;;;;;7.65;4.90;;;;;;;33.21;33.31;99270.35;1678636;84;21166;-63
2021/08/07 07:12:13;;;;;;;11.28;4.95;;;;;;;33.76;32.50;99269.58;1676455;84;21512;-62
2021/08/07 07:14:40;;;;;;;11.45;4.70;;;;;;;34.28;31.38;99259.33;1638956;85;21458;-62
2021/08/07 07:17:07;;;;;;;9.95;4.90;;;;;;;34.68;31.16;99267.98;1675008;84;20960;-62
2021/08/07 07:19:33;;;;;;;11.10;4.58;;;;;;;35.10;30.38;99269.81;1662719;84;21194;-62
2021/08/07 07:22:00;;;;;;;8.95;4.22;;;;;;;35.56;30.43;99270.83;1673577;84;21239;-62
2021/08/07 07:24:27;;;;;;;8.83;4.65;;;;;;;36.10;27.75;99258.24;1674981;84;21050;-63
2021/08/07 07:26:54;;;;;;;12.15;4.83;;;;;;;36.29;27.26;99261.47;1672553;84;21083;-63
2021/08/07 07:29:20;;;;;;;9.60;4.65;;;;;;;36.31;27.08;99267.86;1670923;84;20980;-61
2021/08/07 07:31:49;;;;;;;6.50;4.12;;;;;;;36.43;27.10;99272.95;1672954;84;21294;-63
2021/08/07 07:34:18;;;;;;;9.98;4.83;;;;;;;36.64;26.49;99274.25;1678574;84;21537;-61
2021/08/07 07:36:44;;;;;;;6.55;4.20;;;;;;;36.96;27.14;99273.00;1674642;84;21042;-61
2021/08/07 07:39:11;;;;;;;9.25;4.22;;;;;;;37.54;26.57;99274.63;1675004;84;21069;-61
2021/08/07 07:41:38;;;;;;;10.03;3.92;;;;;;;38.16;25.27;99288.39;1671327;84;20994;-61
2021/08/07 07:44:05;;;;;;;10.05;3.95;;;;;;;38.15;24.84;99278.66;1670258;84;21121;-61
2021/08/07 07:46:31;;;;;;;6.40;4.25;;;;;;;37.85;24.76;99285.31;1677128;84;21169;-61
2021/08/07 07:48:58;;;;;;;6.17;3.62;;;;;;;37.40;25.37;99301.22;1677139;84;20954;-61
2021/08/07 07:51:25;;;;;;;10.53;4.25;;;;;;;37.05;25.99;99301.14;1677780;84;21454;-59
2021/08/07 07:53:52;;;;;;;11.03;3.37;;;;;;;36.79;26.00;99305.72;1662417;84;20995;-61
2021/08/07 07:56:20;;;;;;;7.67;3.30;;;;;;;36.42;25.21;99307.28;1677820;84;21030;-62
2021/08/07 07:58:47;;;;;;;8.78;3.95;;;;;;;36.04;25.34;99303.95;1661307;85;21146;-62
2021/08/07 08:01:14;;;;;;;10.32;3.95;;;;;;;35.72;26.03;99313.16;1675671;84;21078;-61
2021/08/07 08:03:40;;;;;;;10.00;4.17;;;;;;;35.47;25.73;99305.59;1694851;83;21455;-63
2021/08/07 08:06:07;;;;;;;9.05;3.40;;;;;;;35.27;26.33;99314.50;1713574;82;21567;-62
2021/08/07 08:08:34;;;;;;;7.83;4.00;;;;;;;35.25;26.19;99313.31;1708075;83;21075;-62
2021/08/07 08:11:01;;;;;;;6.35;3.62;;;;;;;35.43;26.19;99294.52;1710627;81;21151;-61
2021/08/07 08:13:29;;;;;;;6.80;4.08;;;;;;;35.62;25.87;99279.99;1712243;82;21075;-61
2021/08/07 08:15:56;;;;;;;5.97;3.45;;;;;;;35.69;26.02;99283.54;1712508;82;21207;-62
2021/08/07 08:18:24;;;;;;;6.65;3.72;;;;;;;35.67;26.14;99280.98;1707876;82;21003;-63
2021/08/07 08:20:52;;;;;;;6.28;3.58;;;;;;;35.68;26.08;99282.54;1711584;82;21056;-64
2021/08/07 08:23:20;;;;;;;5.95;3.22;;;;;;;35.60;25.82;99283.64;1710308;81;21162;-61
2021/08/07 08:25:49;;;;;;;10.98;3.92;;;;;;;35.70;26.17;99293.22;1716066;82;20993;-62
2021/08/07 08:28:15;;;;;;;7.67;3.33;;;;;;;36.00;25.66;99286.30;1716023;82;21824;-62
2021/08/07 08:30:43;;;;;;;7.60;3.25;;;;;;;36.43;25.96;99297.97;1714168;82;20993;-62
2021/08/07 08:33:10;;;;;;;8.93;3.60;;;;;;;36.89;24.58;99268.29;1713397;82;20859;-62
2021/08/07 08:35:36;;;;;;;9.18;3.62;;;;;;;37.16;24.37;99270.70;1714997;82;21801;-61
2021/08/07 08:38:05;;;;;;;5.92;2.85;;;;;;;37.29;23.38;99269.17;1711755;82;47042;-61
2021/08/07 08:40:31;;;;;;;6.17;3.10;;;;;;;37.28;23.47;99278.50;1714647;82;21029;-59
2021/08/07 08:42:58;;;;;;;9.05;4.20;;;;;;;37.35;23.59;99255.96;1713702;82;21103;-60
2021/08/07 08:45:25;;;;;;;6.08;3.20;;;;;;;37.36;23.88;99257.53;1714927;82;20992;-60
2021/08/07 08:47:52;;;;;;;6.60;3.92;;;;;;;37.53;23.31;99279.11;1714812;82;21605;-59
2021/08/07 08:50:22;;;;;;;6.92;3.35;;;;;;;37.54;22.89;99256.95;1712111;82;20955;-59
2021/08/07 08:52:47;;;;;;;7.78;4.00;;;;;;;37.50;23.15;99253.46;1714850;82;20933;-61
2021/08/07 08:55:14;;;;;;;7.55;3.60;;;;;;;37.43;23.26;99258.90;1706020;82;21418;-62
2021/08/07 08:57:41;;;;;;;5.30;3.00;;;;;;;37.40;23.24;99250.92;1703843;82;20961;-61
2021/08/07 09:00:09;;;;;;;11.12;3.62;;;;;;;37.41;23.40;99251.14;1699834;83;22063;-62
2021/08/07 09:02:37;;;;;;;7.42;2.83;;;;;;;37.47;22.93;99247.47;1705671;81;21087;-62
2021/08/07 09:05:06;;;;;;;8.43;3.45;;;;;;;37.43;22.96;99251.55;1681250;84;20912;-62
2021/08/07 09:07:33;;;;;;;9.90;3.58;;;;;;;37.42;23.19;99247.25;1670442;84;21017;-62
2021/08/07 09:10:00;;;;;;;6.50;3.37;;;;;;;37.38;23.24;99241.02;1645816;84;21162;-61
2021/08/07 09:12:45;;;;;;;8.13;3.83;;;;;;;37.29;22.41;99248.02;1645408;85;21168;-62
2021/08/07 09:15:38;;;;;;;9.53;3.30;;;;;;;36.99;22.51;99241.77;1682505;83;20975;-62
2021/08/07 09:18:23;;;;;;;8.33;3.25;;;;;;;36.77;23.03;99253.13;1679898;83;21134;-62
2021/08/07 09:20:53;;;;;;;8.68;3.40;;;;;;;36.59;23.17;99236.00;1677446;84;20998;-61
2021/08/07 09:23:33;;;;;;;8.25;3.67;;;;;;;36.50;23.94;99243.16;1678328;84;21885;-61
2021/08/07 09:26:20;;;;;;;8.38;3.00;;;;;;;36.51;23.19;99233.84;1678137;84;21363;-61
2021/08/07 09:28:51;;;;;;;14.70;3.60;;;;;;;36.56;23.35;99240.06;1675475;83;21138;-62
2021/08/07 09:31:21;;;;;;;24.00;17.20;;;;;;;36.72;23.18;99235.09;1675644;84;21569;-62
2021/08/07 09:34:14;;;;;;;11.90;5.85;;;;;;;36.93;23.00;99234.34;1679833;83;20916;-61
2021/08/07 09:36:56;;;;;;;7.22;5.65;;;;;;;37.11;23.07;99222.95;1582030;88;21634;-63
2021/08/07 09:39:41;;;;;;;15.98;10.35;;;;;;;37.34;22.84;99227.23;1662688;84;21173;-63
2021/08/07 09:42:10;;;;;;;9.13;3.87;;;;;;;37.62;23.38;99219.66;1675086;83;21114;-59
2021/08/07 09:44:37;;;;;;;7.00;2.98;;;;;;;37.83;22.61;99210.70;1679196;84;21082;-62
2021/08/07 09:47:15;;;;;;;5.65;2.85;;;;;;;37.78;22.31;99219.27;1631517;85;21015;-63
2021/08/07 09:49:45;;;;;;;6.97;3.02;;;;;;;37.64;22.39;99207.23;1675644;84;21042;-61
2021/08/07 09:52:12;;;;;;;6.53;3.10;;;;;;;37.38;22.57;99213.06;1669797;84;21464;-61
2021/08/07 09:54:43;;;;;;;6.62;3.12;;;;;;;37.20;22.78;99208.97;1670198;84;21121;-62
2021/08/07 09:57:12;;;;;;;6.37;3.67;;;;;;;37.22;23.12;99210.15;1674358;84;21063;-62
2021/08/07 09:59:49;;;;;;;;;;;;;;;37.42;23.16;99210.55;1670181;84;21553;-61
2021/08/07 10:02:28;;;;;;;5.28;3.15;;;;;;;37.53;23.11;99207.83;1666148;84;20919;-65
2021/08/07 10:05:00;;;;;;;6.97;3.22;;;;;;;37.55;22.76;99213.67;1668696;84;21516;-62
2021/08/07 10:07:27;;;;;;;9.18;3.85;;;;;;;37.53;22.71;99225.50;1671918;84;25269;-64
2021/08/07 10:10:01;;;;;;;15.48;4.65;;;;;;;37.40;23.21;99212.09;1669593;84;21587;-62
2021/08/07 10:12:27;;;;;;;5.03;3.35;;;;;;;37.36;23.36;99195.79;1673027;84;21435;-60
2021/08/07 10:14:56;;;;;;;6.35;3.45;;;;;;;37.35;23.20;99205.09;1669902;83;21074;-60
2021/08/07 10:17:24;;;;;;;4.72;3.25;;;;;;;37.25;23.57;99204.53;1671803;84;21215;-62
2021/08/07 10:19:52;;;;;;;6.15;3.42;;;;;;;37.33;23.53;99203.36;1669857;84;21100;-59
2021/08/07 10:22:20;;;;;;;13.95;3.60;;;;;;;37.41;22.85;99202.77;1669081;83;21447;-60
2021/08/07 10:24:50;;;;;;;8.45;3.67;;;;;;;37.39;22.92;99218.13;1673018;84;20966;-62
2021/08/07 10:27:19;;;;;;;13.25;3.67;;;;;;;37.33;22.55;99213.45;1673932;84;21010;-63
2021/08/07 10:29:51;;;;;;;7.00;3.10;;;;;;;37.27;22.76;99206.27;1678946;85;21168;-61
2021/08/07 10:32:18;;;;;;;5.17;2.98;;;;;;;37.39;23.10;99215.41;1666733;85;21709;-63
2021/08/07 10:34:52;;;;;;;9.70;3.15;;;;;;;37.65;22.25;99209.36;1672609;85;21063;-63
2021/08/07 10:37:21;;;;;;;5.62;3.15;;;;;;;37.82;22.64;99208.56;1679838;85;21018;-62
2021/08/07 10:39:49;;;;;;;6.05;2.77;;;;;;;38.06;22.48;99202.88;1673032;85;20907;-61
2021/08/07 10:42:17;;;;;;;7.22;3.00;;;;;;;38.38;22.35;99204.16;1650761;85;21479;-62
2021/08/07 10:44:45;;;;;;;4.20;2.55;;;;;;;38.67;22.07;99205.34;1680725;83;21042;-63
2021/08/07 10:47:13;;;;;;;6.60;2.98;;;;;;;38.70;21.79;99207.27;1679676;85;21219;-63
2021/08/07 10:49:45;;;;;;;5.90;2.77;;;;;;;38.53;21.59;99219.03;1677914;85;21170;-64
2021/08/07 10:52:30;;;;;;;5.80;3.55;;;;;;;38.24;21.68;99212.94;1678450;85;20927;-64
2021/08/07 10:54:56;;;;;;;8.25;4.85;;;;;;;38.19;22.14;99205.95;1679654;83;21103;-61
2021/08/07 10:57:39;;;;;;;12.63;4.92;;;;;;;38.31;21.71;99212.91;1677087;85;20958;-61
2021/08/07 11:00:21;;;;;;;8.13;3.55;;;;;;;38.25;22.48;99213.89;1677105;85;21588;-62
2021/08/07 11:02:47;;;;;;;5.90;3.50;;;;;;;38.48;22.23;99216.73;1679964;83;21575;-62
2021/08/07 11:05:14;;;;;;;6.97;3.50;;;;;;;38.63;21.76;99209.45;1679971;84;21044;-61
2021/08/07 11:07:41;;;;;;;9.80;3.12;;;;;;;38.68;21.74;99206.32;1669968;84;21105;-61
2021/08/07 11:10:11;;;;;;;9.78;3.72;;;;;;;38.56;22.07;99193.73;1679068;84;21104;-63
2021/08/07 11:12:45;;;;;;;13.28;5.10;;;;;;;38.53;22.16;99206.78;1676537;84;21154;-61
2021/08/07 11:15:32;;;;;;;8.93;3.17;;;;;;;38.57;22.63;99223.31;1677538;84;20928;-61
2021/08/07 11:18:24;;;;;;;7.97;3.45;;;;;;;38.77;22.39;99234.47;1676946;84;21009;-61
2021/08/07 11:20:51;;;;;;;8.13;3.62;;;;;;;38.80;21.91;99234.30;1677949;84;21193;-61
2021/08/07 11:23:19;;;;;;;5.45;3.17;;;;;;;38.44;22.29;99224.92;1675143;84;21356;-62
2021/08/07 11:25:56;;;;;;;8.73;3.95;;;;;;;38.26;22.51;99227.68;1676342;84;21086;-63
2021/08/07 11:28:23;;;;;;;6.15;2.92;;;;;;;38.12;22.32;99241.36;1678206;84;21000;-62
2021/08/07 11:31:12;;;;;;;7.70;4.08;;;;;;;37.95;22.56;99238.86;1677186;84;20908;-62
2021/08/07 11:33:38;;;;;;;8.25;3.30;;;;;;;37.90;22.68;99240.05;1677371;84;21945;-63
2021/08/07 11:36:06;;;;;;;6.33;3.10;;;;;;;37.97;22.38;99243.34;1677310;84;21612;-64
2021/08/07 11:38:33;;;;;;;5.97;2.90;;;;;;;38.04;22.07;99224.28;1676831;84;21537;-61